Tarrants, Missouri
Current Conditions -  °F | °C
As of 1:55 PM on Tuesday 21 Oct 2014 (Local Time) from KPPQ Reporting Station
Haze Haze  
Wind Chill: 18°   Ceiling: Unl
Heat Index: 18°   Visibility: 5mi
Dew Point:   Wind: 0mph
Humidity: 47%   Direction: NA
Pressure: 30.14"   Gusts: NA
Location:  39.321°N, 91.1912°W
Report Text: KPPQ 211855Z AUTO 00000KT 5SM HZ CLR 18/06 A3014 RMK AO2 T01750060
Loading
Personal Weather Stations






























Interactive Weather Map
Tropical Storm Tracking
New forecast layout! Learn more

10-Day Weather Forecast

Advertisements
Track Severe Weather on mobile